createdAt,value
2022-11-20T00:01:08.108Z,100669.69
2022-11-20T00:03:57.152Z,100661.06
2022-11-20T00:06:45.292Z,100662.81
2022-11-20T00:09:32.105Z,100660.16
2022-11-20T00:12:18.771Z,100661.00
2022-11-20T00:15:05.878Z,100667.13
2022-11-20T00:17:52.727Z,100665.38
2022-11-20T00:20:39.630Z,100658.38
2022-11-20T00:23:27.715Z,100657.50
2022-11-20T00:26:17.423Z,100663.53
2022-11-20T00:29:04.915Z,100660.09
2022-11-20T00:31:51.712Z,100658.34
2022-11-20T00:34:38.339Z,100655.72
2022-11-20T00:37:25.213Z,100662.75
2022-11-20T00:40:14.610Z,100655.72
2022-11-20T00:43:01.074Z,100668.78
2022-11-20T00:45:47.969Z,100666.94
2022-11-20T00:48:35.124Z,100658.34
2022-11-20T00:51:23.632Z,100669.63
2022-11-20T00:54:10.616Z,100666.19
2022-11-20T00:56:58.435Z,100675.81
2022-11-20T00:59:45.451Z,100669.69
2022-11-20T01:02:32.078Z,100665.28
2022-11-20T01:05:18.841Z,100664.41
2022-11-20T01:08:06.156Z,100664.38
2022-11-20T01:10:52.874Z,100660.09
2022-11-20T01:13:42.291Z,100667.00
2022-11-20T01:16:30.737Z,100649.66
2022-11-20T01:19:20.671Z,100653.13
2022-11-20T01:22:07.747Z,100660.84
2022-11-20T01:24:54.486Z,100659.13
2022-11-20T01:27:41.163Z,100649.59
2022-11-20T01:30:30.380Z,100657.38
2022-11-20T01:33:17.052Z,100653.84
2022-11-20T01:36:08.254Z,100635.63
2022-11-20T01:38:55.690Z,100653.81
2022-11-20T01:42:00.300Z,100646.94
2022-11-20T01:44:56.513Z,100653.81
2022-11-20T01:47:48.266Z,100653.81
2022-11-20T01:50:35.271Z,100646.06
2022-11-20T01:53:26.770Z,100653.84
2022-11-20T01:56:15.707Z,100652.88
2022-11-20T01:59:06.375Z,100645.16
2022-11-20T02:01:53.199Z,100651.19
2022-11-20T02:04:41.308Z,100650.28
2022-11-20T02:07:28.915Z,100638.03
2022-11-20T02:10:16.571Z,100646.00
2022-11-20T02:13:35.592Z,100640.88
2022-11-20T02:16:25.088Z,100630.47
2022-11-20T02:19:19.368Z,100628.66
2022-11-20T02:22:12.998Z,100584.16
2022-11-20T02:25:03.291Z,100636.34
2022-11-20T02:27:50.408Z,100636.34
2022-11-20T02:30:36.983Z,100628.59
2022-11-20T02:33:23.710Z,100624.19
2022-11-20T02:36:13.907Z,100628.47
2022-11-20T02:39:00.624Z,100630.31
2022-11-20T02:41:48.670Z,100629.44
2022-11-20T02:44:35.311Z,100622.47
2022-11-20T02:47:21.947Z,100620.81
2022-11-20T02:50:09.302Z,100621.78
2022-11-20T02:52:55.872Z,100628.63
2022-11-20T02:55:42.568Z,100622.63
2022-11-20T02:58:30.751Z,100626.03
2022-11-20T03:01:17.713Z,100617.34
2022-11-20T03:04:04.836Z,100624.38
2022-11-20T03:06:51.611Z,100631.31
2022-11-20T03:09:38.623Z,100629.56
2022-11-20T03:12:25.344Z,100626.91
2022-11-20T03:15:13.529Z,100632.84
2022-11-20T03:18:00.371Z,100619.72
2022-11-20T03:20:47.082Z,100631.91
2022-11-20T03:23:34.747Z,100631.03
2022-11-20T03:26:24.196Z,100625.91
2022-11-20T03:29:10.699Z,100616.41
2022-11-20T03:31:58.856Z,100612.91
2022-11-20T03:34:45.710Z,100610.19
2022-11-20T03:37:32.215Z,100605.13
2022-11-20T03:40:19.062Z,100610.25
2022-11-20T03:43:05.601Z,100603.25
2022-11-20T03:45:52.306Z,100598.09
2022-11-20T03:48:40.479Z,100603.34
2022-11-20T03:51:28.880Z,100601.59
2022-11-20T03:54:15.724Z,100599.91
2022-11-20T03:57:02.593Z,100603.44
2022-11-20T03:59:49.314Z,100598.13
2022-11-20T04:02:36.382Z,100604.13
2022-11-20T04:05:24.388Z,100594.69
2022-11-20T04:08:11.165Z,100589.50
2022-11-20T04:10:57.915Z,100592.06
2022-11-20T04:13:48.218Z,100594.69
2022-11-20T04:16:37.116Z,100595.56
2022-11-20T04:19:23.612Z,100606.69
2022-11-20T04:22:12.706Z,100602.50
2022-11-20T04:24:59.583Z,100604.13
2022-11-20T04:27:46.408Z,100593.84
2022-11-20T04:30:33.408Z,100588.63
2022-11-20T04:33:20.102Z,100588.56
2022-11-20T04:36:09.603Z,100594.56
2022-11-20T04:38:59.031Z,100592.91
2022-11-20T04:41:45.947Z,100585.00
2022-11-20T04:44:32.826Z,100585.13
2022-11-20T04:47:19.613Z,100588.41
2022-11-20T04:50:07.297Z,100585.91
2022-11-20T04:52:53.760Z,100577.22
2022-11-20T04:55:42.113Z,100590.25
2022-11-20T04:58:28.575Z,100591.09
2022-11-20T05:01:17.349Z,100599.78
2022-11-20T05:04:04.187Z,100587.59
2022-11-20T05:06:51.831Z,100591.94
2022-11-20T05:09:38.189Z,100591.03
2022-11-20T05:12:26.488Z,100579.72
2022-11-20T05:15:13.299Z,100584.06
2022-11-20T05:18:00.187Z,100566.72
2022-11-20T05:20:47.026Z,100571.09
2022-11-20T05:23:34.752Z,100570.25
2022-11-20T05:26:23.883Z,100569.41
2022-11-20T05:29:13.959Z,100565.88
2022-11-20T05:32:00.626Z,100559.81
2022-11-20T05:34:48.861Z,100567.56
2022-11-20T05:37:35.726Z,100564.25
2022-11-20T05:40:22.339Z,100564.25
2022-11-20T05:43:09.120Z,100561.47
2022-11-20T05:45:57.354Z,100561.47
2022-11-20T05:48:45.785Z,100564.91
2022-11-20T05:51:32.216Z,100562.28
2022-11-20T05:54:19.119Z,100551.13
2022-11-20T05:57:05.868Z,100551.91
2022-11-20T05:59:52.655Z,100557.22
2022-11-20T06:02:41.137Z,100545.81
2022-11-20T06:05:27.718Z,100559.84
2022-11-20T06:08:14.382Z,100555.41
2022-11-20T06:11:05.808Z,100553.69
2022-11-20T06:13:52.720Z,100547.56
2022-11-20T06:16:39.568Z,100556.19
2022-11-20T06:19:27.772Z,100550.22
2022-11-20T06:22:14.585Z,100546.75
2022-11-20T06:25:01.408Z,100553.69
2022-11-20T06:28:01.851Z,100557.13
2022-11-20T06:30:49.298Z,100544.88
2022-11-20T06:33:36.142Z,100557.09
2022-11-20T06:36:27.259Z,100547.53
2022-11-20T06:39:14.644Z,100547.41
2022-11-20T06:42:01.473Z,100547.56
2022-11-20T06:44:48.411Z,100545.78
2022-11-20T06:47:35.289Z,100550.94
2022-11-20T06:50:22.031Z,100545.78
2022-11-20T06:53:10.150Z,100556.97
2022-11-20T06:55:59.016Z,100538.00
2022-11-20T06:58:45.757Z,100543.25
2022-11-20T07:01:32.467Z,100548.47
2022-11-20T07:04:19.691Z,100538.91
2022-11-20T07:07:07.174Z,100546.75
2022-11-20T07:09:54.945Z,100540.72
2022-11-20T07:12:41.983Z,100547.56
2022-11-20T07:15:29.077Z,100548.63
2022-11-20T07:18:15.634Z,100545.97
2022-11-20T07:21:03.093Z,100554.69
2022-11-20T07:23:49.527Z,100550.31
2022-11-20T07:26:37.613Z,100546.00
2022-11-20T07:29:24.426Z,100547.78
2022-11-20T07:32:11.287Z,100550.41
2022-11-20T07:34:58.019Z,100546.97
2022-11-20T07:37:46.771Z,100546.13
2022-11-20T07:40:33.654Z,100538.25
2022-11-20T07:43:21.546Z,100541.81
2022-11-20T07:46:08.151Z,100540.09
2022-11-20T07:48:54.983Z,100539.25
2022-11-20T07:51:41.830Z,100541.88
2022-11-20T07:54:28.560Z,100545.25
2022-11-20T07:57:15.419Z,100541.81
2022-11-20T08:00:03.764Z,100534.97
2022-11-20T08:02:58.803Z,100537.56
2022-11-20T08:05:45.685Z,100539.38
2022-11-20T08:08:33.980Z,100505.41
2022-11-20T08:11:37.659Z,100532.41
2022-11-20T08:14:24.190Z,100517.66
2022-11-20T08:17:11.983Z,100535.97
2022-11-20T08:19:58.660Z,100529.88
2022-11-20T08:22:45.280Z,100528.13
2022-11-20T08:25:32.645Z,100473.34
2022-11-20T08:28:21.876Z,100523.81
2022-11-20T08:31:08.862Z,100516.91
2022-11-20T08:33:57.022Z,100515.13
2022-11-20T08:36:43.875Z,100524.72
2022-11-20T08:39:30.453Z,100509.94
2022-11-20T08:42:17.417Z,100520.38
2022-11-20T08:45:04.259Z,100518.66
2022-11-20T08:47:50.932Z,100519.56
2022-11-20T08:50:40.088Z,100512.59
2022-11-20T08:53:26.790Z,100516.94
2022-11-20T08:56:13.850Z,100506.50
2022-11-20T08:59:31.260Z,100509.97
2022-11-20T09:02:07.902Z,100507.38
2022-11-20T09:04:54.904Z,100503.91
2022-11-20T09:07:43.294Z,100496.03
2022-11-20T09:10:30.132Z,100478.66
2022-11-20T09:13:16.641Z,100492.56
2022-11-20T09:16:06.019Z,100509.97
2022-11-20T09:19:02.209Z,100516.94
2022-11-20T09:22:01.091Z,100521.28
2022-11-20T09:24:49.062Z,100518.66
2022-11-20T09:27:36.708Z,100510.84
2022-11-20T09:30:23.457Z,100519.56
2022-11-20T09:33:10.224Z,100518.69
2022-11-20T09:35:57.023Z,100513.47
2022-11-20T09:38:43.768Z,100518.69
2022-11-20T09:42:09.408Z,100512.59
2022-11-20T09:45:21.286Z,100513.47
2022-11-20T09:48:22.979Z,100507.34
2022-11-20T09:51:19.264Z,100503.88
2022-11-20T09:54:18.134Z,100441.22
2022-11-20T09:57:12.137Z,100491.69
2022-11-20T10:00:02.797Z,100492.56
2022-11-20T10:03:06.890Z,100487.31
2022-11-20T10:05:56.246Z,100481.22
2022-11-20T10:08:47.445Z,100475.13
2022-11-20T10:11:45.828Z,100469.91
2022-11-20T10:14:44.207Z,100469.00
2022-11-20T10:17:48.917Z,100469.00
2022-11-20T10:20:45.885Z,100469.88
2022-11-20T10:23:45.759Z,100466.38
2022-11-20T10:26:42.294Z,100466.38
2022-11-20T10:29:35.347Z,100462.06
2022-11-20T10:32:32.450Z,100462.91
2022-11-20T10:35:25.204Z,100467.25
2022-11-20T10:38:19.227Z,100442.03
2022-11-20T10:41:25.543Z,100467.31
2022-11-20T10:44:37.153Z,100362.94
2022-11-20T10:47:25.366Z,100466.47
2022-11-20T10:50:21.793Z,100454.25
2022-11-20T10:53:24.486Z,100450.75
2022-11-20T10:56:18.514Z,100447.25
2022-11-20T10:59:28.326Z,100453.38
2022-11-20T11:02:21.200Z,100457.72
2022-11-20T11:05:18.701Z,100453.38
2022-11-20T11:08:09.951Z,100457.72
2022-11-20T11:10:59.689Z,100453.38
2022-11-20T11:13:46.432Z,100450.78
2022-11-20T11:16:32.876Z,100457.78
2022-11-20T11:19:19.842Z,100450.81
2022-11-20T11:22:18.290Z,100454.28
2022-11-20T11:25:05.162Z,100443.78
2022-11-20T11:27:53.358Z,100449.00
2022-11-20T11:30:45.997Z,100441.19
2022-11-20T11:33:34.783Z,100437.72
2022-11-20T11:36:26.067Z,100437.75
2022-11-20T11:39:18.037Z,100437.75
2022-11-20T11:42:05.208Z,100429.94
2022-11-20T11:45:07.457Z,100422.97
2022-11-20T11:47:57.965Z,100428.19
2022-11-20T11:50:50.637Z,100429.06
2022-11-20T11:53:43.617Z,100433.41
2022-11-20T11:56:35.248Z,100422.97
2022-11-20T11:59:29.508Z,100428.16
2022-11-20T12:02:32.575Z,100431.63
2022-11-20T12:05:23.787Z,100427.28
2022-11-20T12:08:18.415Z,100414.22
2022-11-20T12:11:12.741Z,100416.81
2022-11-20T12:14:06.693Z,100417.69
2022-11-20T12:16:54.368Z,100421.16
2022-11-20T12:19:41.928Z,100420.31
2022-11-20T12:22:37.809Z,100385.50
2022-11-20T12:25:28.444Z,100416.84
2022-11-20T12:28:29.359Z,100407.28
2022-11-20T12:31:32.895Z,100403.81
2022-11-20T12:34:41.473Z,100399.47
2022-11-20T12:37:38.984Z,100394.25
2022-11-20T12:40:35.659Z,100398.59
2022-11-20T12:43:43.011Z,100394.25
2022-11-20T12:46:40.266Z,100391.66
2022-11-20T12:49:36.038Z,100396.00
2022-11-20T12:52:37.931Z,100400.34
2022-11-20T12:55:35.212Z,100396.00
2022-11-20T12:58:28.110Z,100394.25
2022-11-20T13:01:40.739Z,100395.13
2022-11-20T13:05:02.226Z,100396.88
2022-11-20T13:07:49.772Z,100397.72
2022-11-20T13:10:44.523Z,100394.25
2022-11-20T13:13:38.262Z,100395.13
2022-11-20T13:16:33.142Z,100392.50
2022-11-20T13:19:20.688Z,100392.50
2022-11-20T13:22:10.860Z,100396.00
2022-11-20T13:24:57.484Z,100386.44
2022-11-20T13:27:50.175Z,100387.28
2022-11-20T13:30:38.297Z,100301.22
2022-11-20T13:33:29.444Z,100379.47
2022-11-20T13:36:24.696Z,100352.50
2022-11-20T13:39:12.842Z,100376.00
2022-11-20T13:42:01.160Z,100377.72
2022-11-20T13:44:52.993Z,100374.25
2022-11-20T13:47:40.111Z,100379.47
2022-11-20T13:50:48.124Z,100377.72
2022-11-20T13:53:54.728Z,100370.78
2022-11-20T13:56:56.834Z,100374.25
2022-11-20T13:59:57.540Z,100370.78
2022-11-20T14:02:45.008Z,100359.47
2022-11-20T14:05:35.296Z,100357.72
2022-11-20T14:08:31.268Z,100369.91
2022-11-20T14:11:20.219Z,100357.72
2022-11-20T14:14:18.434Z,100376.84
2022-11-20T14:17:10.160Z,100375.09
2022-11-20T14:20:00.832Z,100372.50
2022-11-20T14:22:51.378Z,100375.13
2022-11-20T14:25:37.871Z,100369.03
2022-11-20T14:28:28.756Z,100369.03
2022-11-20T14:31:25.176Z,100361.19
2022-11-20T14:34:17.841Z,100361.22
2022-11-20T14:37:10.417Z,100367.28
2022-11-20T14:40:01.840Z,100360.34
2022-11-20T14:42:48.559Z,100368.16
2022-11-20T14:45:35.240Z,100360.34
2022-11-20T14:48:28.455Z,100356.88
2022-11-20T14:51:28.218Z,100362.94
2022-11-20T14:54:17.149Z,100358.59
2022-11-20T14:57:05.864Z,100356.84
2022-11-20T14:59:52.369Z,100347.28
2022-11-20T15:02:41.589Z,100347.28
2022-11-20T15:05:48.282Z,100354.25
2022-11-20T15:08:35.216Z,100353.41
2022-11-20T15:11:27.788Z,100358.59
2022-11-20T15:14:14.344Z,100356.88
2022-11-20T15:17:01.894Z,100354.25
2022-11-20T15:19:48.710Z,100346.44
2022-11-20T15:22:36.552Z,100349.88
2022-11-20T15:25:25.599Z,100350.75
2022-11-20T15:28:18.932Z,100334.28
2022-11-20T15:31:06.474Z,100330.78
2022-11-20T15:33:53.294Z,100336.00
2022-11-20T15:36:39.924Z,100330.78
2022-11-20T15:39:28.227Z,100332.53
2022-11-20T15:42:15.192Z,100336.00
2022-11-20T15:45:01.811Z,100329.03
2022-11-20T15:47:48.997Z,100338.59
2022-11-20T15:50:43.132Z,100327.31
2022-11-20T15:53:34.568Z,100335.13
2022-11-20T15:56:37.257Z,100338.63
2022-11-20T15:59:31.843Z,100334.25
2022-11-20T16:02:19.688Z,100332.50
2022-11-20T16:05:12.199Z,100329.06
2022-11-20T16:07:59.993Z,100327.31
2022-11-20T16:10:48.275Z,100316.00
2022-11-20T16:13:55.667Z,100322.94
2022-11-20T16:16:44.200Z,100324.72
2022-11-20T16:19:31.564Z,100324.72
2022-11-20T16:22:18.415Z,100325.56
2022-11-20T16:25:05.376Z,100321.22
2022-11-20T16:27:52.244Z,100327.28
2022-11-20T16:30:44.003Z,100322.09
2022-11-20T16:33:31.175Z,100324.72
2022-11-20T16:36:18.103Z,100319.47
2022-11-20T16:39:05.725Z,100323.81
2022-11-20T16:41:52.690Z,100327.28
2022-11-20T16:44:39.157Z,100335.13
2022-11-20T16:47:27.530Z,100333.38
2022-11-20T16:50:14.960Z,100333.41
2022-11-20T16:53:02.579Z,100339.47
2022-11-20T16:55:51.497Z,100344.69
2022-11-20T16:58:39.273Z,100341.22
2022-11-20T17:01:29.041Z,100340.34
2022-11-20T17:04:19.333Z,100282.09
2022-11-20T17:07:08.235Z,100287.28
2022-11-20T17:09:56.389Z,100337.75
2022-11-20T17:12:44.831Z,100336.00
2022-11-20T17:15:33.312Z,100332.53
2022-11-20T17:18:32.278Z,100330.75
2022-11-20T17:21:20.942Z,100333.38
2022-11-20T17:24:09.711Z,100333.38
2022-11-20T17:26:56.305Z,100325.53
2022-11-20T17:29:43.036Z,100334.25
2022-11-20T17:32:29.908Z,100337.72
2022-11-20T17:35:16.844Z,100342.03
2022-11-20T17:38:04.838Z,100342.00
2022-11-20T17:40:51.568Z,100336.84
2022-11-20T17:43:39.077Z,100314.22
2022-11-20T17:46:27.768Z,100341.16
2022-11-20T17:49:14.262Z,100329.84
2022-11-20T17:52:01.168Z,100340.28
2022-11-20T17:54:49.550Z,100334.22
2022-11-20T17:57:52.946Z,100330.72
2022-11-20T18:00:39.660Z,100325.50
2022-11-20T18:03:26.619Z,100337.69
2022-11-20T18:06:14.597Z,100343.78
2022-11-20T18:09:02.469Z,100329.00
2022-11-20T18:11:50.764Z,100322.06
2022-11-20T18:14:37.611Z,100326.38
2022-11-20T18:17:24.684Z,100316.84
2022-11-20T18:20:30.206Z,100316.84
2022-11-20T18:23:18.881Z,100311.63
2022-11-20T18:26:05.898Z,100306.41
2022-11-20T18:28:54.726Z,100305.56
2022-11-20T18:31:41.387Z,100290.78
2022-11-20T18:34:28.555Z,100297.72
2022-11-20T18:37:16.619Z,100299.44
2022-11-20T18:40:03.353Z,100288.13
2022-11-20T18:43:07.447Z,100284.66
2022-11-20T18:46:04.209Z,100295.97
2022-11-20T18:48:50.833Z,100295.97
2022-11-20T18:51:38.098Z,100291.63
2022-11-20T18:54:25.088Z,100288.19
2022-11-20T18:57:14.994Z,100297.72
2022-11-20T19:00:08.562Z,100289.00
2022-11-20T19:02:57.177Z,100294.28
2022-11-20T19:05:43.909Z,100291.66
2022-11-20T19:08:30.823Z,100296.00
2022-11-20T19:11:17.526Z,100294.25
2022-11-20T19:14:04.511Z,100289.88
2022-11-20T19:16:51.492Z,100285.53
2022-11-20T19:19:39.540Z,100289.03
2022-11-20T19:22:30.746Z,100286.44
2022-11-20T19:25:17.481Z,100273.38
2022-11-20T19:28:04.256Z,100289.06
2022-11-20T19:30:51.099Z,100291.66
2022-11-20T19:33:38.092Z,100289.06
2022-11-20T19:36:28.734Z,100291.66
2022-11-20T19:39:15.543Z,100292.50
2022-11-20T19:42:02.756Z,100287.28
2022-11-20T19:44:49.476Z,100270.75
2022-11-20T19:48:06.075Z,100282.94
2022-11-20T19:50:42.667Z,100281.22
2022-11-20T19:53:31.084Z,100274.25
2022-11-20T19:56:18.484Z,100275.13
2022-11-20T19:59:05.780Z,100275.97
2022-11-20T20:01:52.587Z,100284.66
2022-11-20T20:04:41.428Z,100282.91
2022-11-20T20:07:28.309Z,100276.81
2022-11-20T20:10:18.333Z,100276.00
2022-11-20T20:13:05.168Z,100273.41
2022-11-20T20:15:51.999Z,100266.47
2022-11-20T20:18:38.989Z,100268.19
2022-11-20T20:21:25.934Z,100278.56
2022-11-20T20:24:13.094Z,100274.25
2022-11-20T20:27:01.061Z,100262.09
2022-11-20T20:29:47.818Z,100263.81
2022-11-20T20:32:35.321Z,100271.63
2022-11-20T20:35:22.187Z,100267.28
2022-11-20T20:38:09.038Z,100261.22
2022-11-20T20:40:55.855Z,100259.47
2022-11-20T20:44:01.338Z,100257.69
2022-11-20T20:46:47.946Z,100257.72
2022-11-20T20:49:35.262Z,100258.59
2022-11-20T20:52:21.969Z,100263.78
2022-11-20T20:55:08.814Z,100244.69
2022-11-20T20:57:55.503Z,100249.88
2022-11-20T21:00:43.332Z,100240.31
2022-11-20T21:03:32.988Z,100238.56
2022-11-20T21:06:19.613Z,100244.66
2022-11-20T21:09:06.360Z,100244.63
2022-11-20T21:11:53.029Z,100239.41
2022-11-20T21:14:40.001Z,100241.16
2022-11-20T21:17:29.265Z,100240.28
2022-11-20T21:20:30.280Z,100229.91
2022-11-20T21:23:16.944Z,100232.50
2022-11-20T21:26:05.061Z,100225.53
2022-11-20T21:28:51.655Z,100223.78
2022-11-20T21:31:38.584Z,100222.06
2022-11-20T21:34:26.848Z,100212.50
2022-11-20T21:37:13.483Z,100209.00
2022-11-20T21:40:00.259Z,100204.63
2022-11-20T21:42:46.638Z,100205.50
2022-11-20T21:45:33.435Z,100204.59
2022-11-20T21:48:20.509Z,100200.31
2022-11-20T21:51:10.370Z,100196.75
2022-11-20T21:53:57.595Z,100200.09
2022-11-20T21:56:44.451Z,100198.34
2022-11-20T21:59:31.123Z,100194.84
2022-11-20T22:02:17.797Z,100193.16
2022-11-20T22:05:04.731Z,100190.53
2022-11-20T22:07:52.836Z,100194.88
2022-11-20T22:10:39.586Z,100193.13
2022-11-20T22:13:44.861Z,100176.63
2022-11-20T22:16:32.059Z,100188.81
2022-11-20T22:19:19.239Z,100181.03
2022-11-20T22:22:06.066Z,100173.97
2022-11-20T22:24:54.211Z,100180.09
2022-11-20T22:27:41.124Z,100178.31
2022-11-20T22:30:28.297Z,100175.81
2022-11-20T22:33:14.744Z,100177.41
2022-11-20T22:36:03.016Z,100173.94
2022-11-20T22:38:49.786Z,100169.47
2022-11-20T22:41:38.055Z,100169.41
2022-11-20T22:44:24.923Z,100161.50
2022-11-20T22:47:11.732Z,100161.63
2022-11-20T22:49:58.365Z,100165.84
2022-11-20T22:52:45.258Z,100170.97
2022-11-20T22:55:34.069Z,100169.31
2022-11-20T22:58:25.126Z,100164.91
2022-11-20T23:01:14.054Z,100154.59
2022-11-20T23:04:02.304Z,100067.59
2022-11-20T23:06:48.880Z,100149.19
2022-11-20T23:09:35.563Z,100166.47
2022-11-20T23:12:22.382Z,100149.13
2022-11-20T23:15:14.903Z,100151.63
2022-11-20T23:18:02.411Z,100145.50
2022-11-20T23:20:49.007Z,100144.63
2022-11-20T23:23:35.782Z,100143.78
2022-11-20T23:26:24.798Z,100144.69
2022-11-20T23:29:11.465Z,100139.50
2022-11-20T23:31:59.523Z,100149.00
2022-11-20T23:34:46.208Z,100143.72
2022-11-20T23:37:33.095Z,100135.91
2022-11-20T23:40:21.044Z,100135.81
2022-11-20T23:43:16.424Z,100132.34
2022-11-20T23:46:04.688Z,100128.88
2022-11-20T23:48:52.551Z,100123.69
2022-11-20T23:51:43.728Z,100123.63
2022-11-20T23:54:30.284Z,100108.09
2022-11-20T23:57:17.228Z,100111.47
